Wax, Kentucky
Current Conditions -  °F | °C
As of 12:35 PM on Monday 22 Dec 2014 (Local Time) from KGLW Reporting Station
Overcast Overcast  
Wind Chill: 12°   Ceiling: 2500
Heat Index: 12°   Visibility: 10mi
Dew Point:   Wind: 7mph
Humidity: 68%   Direction: 130°SE
Pressure: 29.81"   Gusts: NA
Location:  37.4262°N, 86.1465°W
Report Text: KGLW 221835Z AUTO 13006KT 10SM OVC025 12/06 A2981 RMK AO2 T01180060
Loading
Personal Weather Stations






























Interactive Weather Map New forecast layout! Learn more

10-Day Weather Forecast

Advertisements
Track Severe Weather on mobile